^^

..:: Storico WU ::..




Lo storico viene creato da WUnderground con i dati che la stazione Meteomincio invia al loro server. L' aggiornamento viene fatto ogni 5 minuti circa, tuttavia possono esserci intervalli pił ampi a causa di errori, interruzioni di servizio o problemi nell' invio tramite FTP.


Storico stazione MeteoMincio
Giorno Sommario per Giugno 13, 2022 Unità:  Inglese    Metrico   Entrambi
Giorno Settimana Mese Anno
  Max: Min: Media:
Temperatura: 91.4 °F 66.2 °F 78.8 °F
Dew Point: 69.8 °F 60.8 °F 64.6 °F
Umidità: 82% 42% 64%
Velocità vento: 9.3mph 0mph 4.3mph
Raffica: 14.3mph - -
Direzione- - East
Pressione: 30 in 29.9 in -
Precipitazioni: 0 in    
 
 
Tabulato Dati per Giugno 13, 2022
Ora Temperatura Dew Point Pressione Direzione Velocità vento Raffica Umidità Intensità pioggia (oraria) Info solare Situazione
00:04 75.2 °F 62.6 °F 30 in SE 1.9 mph 3.7 mph 65% 0 in 0.00 W/m2 unknown
00:09 75.2 °F 62.6 °F 30 in SE 2.5 mph 3.7 mph 65% 0 in 0.00 W/m2 unknown
00:14 73.4 °F 60.8 °F 30 in SE 3.1 mph 5 mph 65% 0 in 0.00 W/m2 unknown
00:19 73.4 °F 60.8 °F 30 in ESE 3.1 mph 5 mph 66% 0 in 0.00 W/m2 unknown
00:24 73.4 °F 60.8 °F 30 in ESE 2.5 mph 3.7 mph 67% 0 in 0.00 W/m2 unknown
00:29 73.4 °F 60.8 °F 30 in SE 1.9 mph 3.7 mph 67% 0 in 0.00 W/m2 unknown
00:34 73.4 °F 60.8 °F 30 in SE 1.9 mph 3.7 mph 67% 0 in 0.00 W/m2 unknown
00:39 73.4 °F 60.8 °F 30 in SE 1.9 mph 3.7 mph 66% 0 in 0.00 W/m2 unknown
00:44 73.4 °F 60.8 °F 30 in SE 1.9 mph 3.7 mph 66% 0 in 0.00 W/m2 unknown
00:49 73.4 °F 60.8 °F 30 in SE 1.9 mph 3.7 mph 66% 0 in 0.00 W/m2 unknown
00:54 73.4 °F 60.8 °F 30 in SE 1.9 mph 3.7 mph 67% 0 in 0.00 W/m2 unknown
00:59 73.4 °F 60.8 °F 30 in SE 1.2 mph 3.1 mph 67% 0 in 0.00 W/m2 unknown
01:04 73.4 °F 60.8 °F 30 in SE 1.2 mph 1.9 mph 67% 0 in 0.00 W/m2 unknown
01:09 73.4 °F 60.8 °F 30 in Calm     68% 0 in 0.00 W/m2 unknown
01:14 73.4 °F 60.8 °F 30 in Calm     69% 0 in 0.00 W/m2 unknown
01:19 71.6 °F 62.6 °F 30 in Calm     71% 0 in 0.00 W/m2 unknown
01:24 71.6 °F 62.6 °F 30 in Calm     72% 0 in 0.00 W/m2 unknown
01:29 71.6 °F 62.6 °F 30 in Calm     73% 0 in 0.00 W/m2 unknown
01:34 71.6 °F 62.6 °F 30 in Calm     74% 0 in 0.00 W/m2 unknown
01:39 71.6 °F 62.6 °F 30 in Calm     75% 0 in 0.00 W/m2 unknown
01:44 71.6 °F 62.6 °F 30 in NE 1.2 mph 3.1 mph 75% 0 in 0.00 W/m2 unknown
01:49 69.8 °F 62.6 °F 30 in NE 2.5 mph 3.7 mph 75% 0 in 0.00 W/m2 unknown
01:54 69.8 °F 62.6 °F 30 in NNE 2.5 mph 3.7 mph 74% 0 in 0.00 W/m2 unknown
01:59 69.8 °F 60.8 °F 30 in NE 2.5 mph 3.7 mph 74% 0 in 0.00 W/m2 unknown
02:04 69.8 °F 60.8 °F 30 in NE 2.5 mph 3.7 mph 72% 0 in 0.00 W/m2 unknown
02:09 69.8 °F 60.8 °F 30 in NNE 2.5 mph 3.7 mph 73% 0 in 0.00 W/m2 unknown
02:14 69.8 °F 60.8 °F 30 in NNE 1.9 mph 3.7 mph 73% 0 in 0.00 W/m2 unknown
02:18 69.8 °F 60.8 °F 30 in NNE 1.9 mph 3.7 mph 73% 0 in 0.00 W/m2 unknown
02:24 69.8 °F 60.8 °F 30 in NE 3.1 mph 3.7 mph 73% 0 in 0.00 W/m2 unknown
02:29 69.8 °F 60.8 °F 30 in NE 3.1 mph 3.7 mph 73% 0 in 0.00 W/m2 unknown
02:34 69.8 °F 60.8 °F 30 in NE 3.1 mph 3.7 mph 74% 0 in 0.00 W/m2 unknown
02:39 69.8 °F 60.8 °F 30 in NE 3.1 mph 3.7 mph 74% 0 in 0.00 W/m2 unknown
02:44 69.8 °F 60.8 °F 30 in NE 2.5 mph 3.7 mph 74% 0 in 0.00 W/m2 unknown
02:49 69.8 °F 60.8 °F 30 in NNE 2.5 mph 3.7 mph 75% 0 in 0.00 W/m2 unknown
02:54 69.8 °F 60.8 °F 30 in NNE 3.1 mph 3.7 mph 75% 0 in 0.00 W/m2 unknown
02:59 69.8 °F 60.8 °F 30 in NNE 3.1 mph 3.7 mph 75% 0 in 0.00 W/m2 unknown
03:04 69.8 °F 60.8 °F 30 in NE 3.1 mph 3.7 mph 75% 0 in 0.00 W/m2 unknown
03:09 69.8 °F 60.8 °F 30 in NE 2.5 mph 3.7 mph 76% 0 in 0.00 W/m2 unknown
03:14 69.8 °F 60.8 °F 30 in ENE 3.1 mph 5 mph 76% 0 in 0.00 W/m2 unknown
03:19 69.8 °F 60.8 °F 30 in ENE 3.7 mph 5 mph 77% 0 in 0.00 W/m2 unknown
03:24 68 °F 60.8 °F 30 in ENE 3.7 mph 5 mph 77% 0 in 0.00 W/m2 unknown
03:29 68 °F 60.8 °F 30 in ENE 3.7 mph 5 mph 78% 0 in 0.00 W/m2 unknown
03:34 68 °F 60.8 °F 30 in ENE 3.1 mph 5 mph 79% 0 in 0.00 W/m2 unknown
03:39 68 °F 60.8 °F 30 in ENE 3.1 mph 4.3 mph 79% 0 in 0.00 W/m2 unknown
03:44 68 °F 60.8 °F 30 in ENE 3.7 mph 6.8 mph 79% 0 in 0.00 W/m2 unknown
03:49 68 °F 60.8 °F 30 in ENE 4.3 mph 6.8 mph 79% 0 in 0.00 W/m2 unknown
03:54 68 °F 60.8 °F 30 in ENE 5 mph 6.8 mph 78% 0 in 0.00 W/m2 unknown
03:59 68 °F 60.8 °F 30 in ENE 5 mph 6.8 mph 77% 0 in 0.00 W/m2 unknown
04:04 68 °F 60.8 °F 30 in ENE 5 mph 6.8 mph 77% 0 in 0.00 W/m2 unknown
04:08 68 °F 60.8 °F 30 in ENE 4.3 mph 5 mph 77% 0 in 0.00 W/m2 unknown
04:12 68 °F 60.8 °F 30 in ENE 5 mph 6.8 mph 76% 0 in 0.00 W/m2 unknown
04:17 68 °F 60.8 °F 30 in ENE 6.2 mph 8.1 mph 77% 0 in 0.00 W/m2 unknown
04:22 68 °F 60.8 °F 30 in ENE 6.2 mph 8.1 mph 76% 0 in 0.00 W/m2 unknown
04:28 68 °F 60.8 °F 30 in ENE 5.6 mph 8.1 mph 76% 0 in 0.00 W/m2 unknown
04:33 68 °F 60.8 °F 30 in ENE 5 mph 8.1 mph 76% 0 in 0.00 W/m2 unknown
04:39 68 °F 60.8 °F 30 in ENE 6.2 mph 8.1 mph 76% 0 in 0.00 W/m2 unknown
04:43 68 °F 60.8 °F 30 in ENE 6.2 mph 8.1 mph 76% 0 in 0.00 W/m2 unknown
04:48 68 °F 60.8 °F 30 in ENE 5 mph 6.8 mph 76% 0 in 0.00 W/m2 unknown
04:53 68 °F 60.8 °F 30 in ENE 4.3 mph 6.8 mph 77% 0 in 0.00 W/m2 unknown
04:58 68 °F 60.8 °F 30 in ENE 3.1 mph 4.3 mph 78% 0 in 0.00 W/m2 unknown
05:04 68 °F 60.8 °F 30 in ENE 1.9 mph 3.7 mph 78% 0 in 0.00 W/m2 unknown
05:08 68 °F 60.8 °F 30 in ENE 1.9 mph 3.7 mph 79% 0 in 0.00 W/m2 unknown
05:14 68 °F 60.8 °F 30 in ENE 1.9 mph 3.1 mph 80% 0 in 0.00 W/m2 unknown
05:19 68 °F 60.8 °F 30 in ENE 1.2 mph 2.5 mph 80% 0 in 0.00 W/m2 unknown
05:23 68 °F 60.8 °F 30 in ENE 1.2 mph 2.5 mph 80% 0 in 0.00 W/m2 unknown
05:29 68 °F 60.8 °F 30 in ENE 1.2 mph 2.5 mph 80% 0 in 0.00 W/m2 unknown
05:34 68 °F 60.8 °F 30 in NE 1.2 mph 1.2 mph 79% 0 in 0.00 W/m2 unknown
05:39 68 °F 60.8 °F 30 in WNW 1.2 mph 2.5 mph 81% 0 in 5.00 W/m2 unknown
05:44 68 °F 60.8 °F 30 in West 1.9 mph 3.7 mph 81% 0 in 7.00 W/m2 unknown
05:49 66.2 °F 60.8 °F 30 in West 1.9 mph 3.7 mph 82% 0 in 14.00 W/m2 unknown
05:54 66.2 °F 60.8 °F 30 in West 1.9 mph 3.1 mph 82% 0 in 19.00 W/m2 unknown
05:59 66.2 °F 60.8 °F 30 in West 1.2 mph 1.9 mph 82% 0 in 21.00 W/m2 unknown
06:00 66.2 °F 60.8 °F 30 in Calm   1.2 mph 82% 0 in 21.00 W/m2 unknown
06:09 68 °F 60.8 °F 30 in Calm   1.2 mph 81% 0 in 25.00 W/m2 unknown
06:14 68 °F 62.6 °F 30 in SSE 1.2 mph 3.7 mph 81% 0 in 30.00 W/m2 unknown
06:19 68 °F 62.6 °F 30 in SE 1.9 mph 3.7 mph 81% 0 in 35.00 W/m2 unknown
06:24 68 °F 62.6 °F 30 in SE 1.2 mph 3.7 mph 81% 0 in 37.00 W/m2 unknown
06:29 68 °F 62.6 °F 30 in SE 1.2 mph 3.1 mph 80% 0 in 47.00 W/m2 unknown
06:34 68 °F 62.6 °F 30 in ENE 0.6 mph 1.2 mph 80% 0 in 69.00 W/m2 unknown
06:39 69.8 °F 62.6 °F 30 in NE 1.2 mph 1.2 mph 80% 0 in 53.00 W/m2 unknown
06:44 69.8 °F 62.6 °F 30 in NE 0.6 mph 2.5 mph 78% 0 in 49.00 W/m2 unknown
06:49 69.8 °F 62.6 °F 30 in NE 1.9 mph 3.7 mph 78% 0 in 69.00 W/m2 unknown
06:54 69.8 °F 62.6 °F 30 in East 2.5 mph 3.7 mph 78% 0 in 69.00 W/m2 unknown
06:59 69.8 °F 62.6 °F 30 in ESE 3.1 mph 3.7 mph 78% 0 in 77.00 W/m2 unknown
07:04 68 °F 60.8 °F 30 in East 3.1 mph 3.7 mph 78% 0 in 86.00 W/m2 unknown
07:09 68 °F 60.8 °F 30 in ENE 3.1 mph 3.7 mph 78% 0 in 90.00 W/m2 unknown
07:13 69.8 °F 60.8 °F 30 in ENE 3.1 mph 6.8 mph 77% 0 in 107.00 W/m2 unknown
07:19 69.8 °F 62.6 °F 30 in ENE 4.3 mph 6.8 mph 78% 0 in 107.00 W/m2 unknown
07:24 69.8 °F 62.6 °F 30 in East 4.3 mph 6.2 mph 78% 0 in 104.00 W/m2 unknown
07:29 69.8 °F 62.6 °F 30 in ENE 5 mph 6.2 mph 78% 0 in 84.00 W/m2 unknown
07:34 69.8 °F 62.6 °F 30 in ENE 3.7 mph 5 mph 78% 0 in 167.00 W/m2 unknown
07:39 69.8 °F 62.6 °F 30 in ENE 3.7 mph 5 mph 79% 0 in 186.00 W/m2 unknown
07:44 69.8 °F 62.6 °F 30 in East 3.1 mph 5 mph 79% 0 in 265.00 W/m2 unknown
07:49 69.8 °F 64.4 °F 30 in ENE 3.1 mph 6.2 mph 78% 0 in 283.00 W/m2 unknown
07:54 71.6 °F 64.4 °F 30 in ESE 3.1 mph 6.2 mph 78% 0 in 290.00 W/m2 unknown
07:59 71.6 °F 64.4 °F 30 in SSE 2.5 mph 6.2 mph 77% 0 in 290.00 W/m2 unknown
08:04 71.6 °F 64.4 °F 30 in ESE 3.1 mph 6.2 mph 77% 0 in 292.00 W/m2 unknown
08:09 71.6 °F 64.4 °F 30 in East 3.7 mph 6.2 mph 76% 0 in 308.00 W/m2 unknown
08:14 73.4 °F 64.4 °F 30 in East 3.7 mph 6.8 mph 76% 0 in 357.00 W/m2 unknown
08:19 73.4 °F 64.4 °F 30 in East 5.6 mph 8.1 mph 76% 0 in 411.00 W/m2 unknown
08:24 75.2 °F 64.4 °F 30 in East 5.6 mph 8.1 mph 74% 0 in 438.00 W/m2 unknown
08:29 75.2 °F 64.4 °F 30 in East 5 mph 8.1 mph 72% 0 in 311.00 W/m2 unknown
08:34 75.2 °F 64.4 °F 30 in East 5 mph 6.8 mph 72% 0 in 364.00 W/m2 unknown
08:39 75.2 °F 66.2 °F 30 in East 5 mph 6.8 mph 74% 0 in 462.00 W/m2 unknown
08:44 75.2 °F 66.2 °F 30 in East 4.3 mph 6.8 mph 73% 0 in 487.00 W/m2 unknown
08:49 77 °F 66.2 °F 30 in ESE 5.6 mph 8.1 mph 72% 0 in 526.00 W/m2 unknown
08:54 77 °F 66.2 °F 30 in East 6.2 mph 8.1 mph 70% 0 in 561.00 W/m2 unknown
08:59 77 °F 66.2 °F 30 in East 5 mph 8.1 mph 69% 0 in 561.00 W/m2 unknown
09:04 77 °F 66.2 °F 30 in ESE 5.6 mph 8.1 mph 69% 0 in 301.00 W/m2 unknown
09:09 77 °F 66.2 °F 30 in ESE 5.6 mph 8.1 mph 69% 0 in 258.00 W/m2 unknown
09:14 77 °F 66.2 °F 30 in SE 6.2 mph 8.1 mph 70% 0 in 278.00 W/m2 unknown
09:19 77 °F 66.2 °F 30 in South 3.1 mph 6.8 mph 70% 0 in 527.00 W/m2 unknown
09:24 78.8 °F 66.2 °F 30 in SSE 3.1 mph 5 mph 69% 0 in 524.00 W/m2 unknown
09:29 78.8 °F 66.2 °F 30 in SSW 3.7 mph 6.8 mph 65% 0 in 534.00 W/m2 unknown
09:34 78.8 °F 66.2 °F 30 in SSW 5.6 mph 6.8 mph 66% 0 in 538.00 W/m2 unknown
09:39 78.8 °F 66.2 °F 30 in SSW 5.6 mph 6.8 mph 65% 0 in 559.00 W/m2 unknown
09:44 78.8 °F 64.4 °F 30 in South 5 mph 6.8 mph 64% 0 in 584.00 W/m2 unknown
09:49 78.8 °F 66.2 °F 30 in ESE 4.3 mph 6.8 mph 65% 0 in 594.00 W/m2 unknown
09:54 78.8 °F 64.4 °F 30 in SE 3.7 mph 6.8 mph 63% 0 in 599.00 W/m2 unknown
09:59 78.8 °F 66.2 °F 30 in SE 3.7 mph 8.1 mph 64% 0 in 592.00 W/m2 unknown
10:04 78.8 °F 66.2 °F 30 in ESE 5 mph 8.1 mph 64% 0 in 610.00 W/m2 unknown
10:09 78.8 °F 66.2 °F 30 in ESE 5 mph 8.1 mph 64% 0 in 617.00 W/m2 unknown
10:14 78.8 °F 66.2 °F 30 in ESE 5 mph 6.8 mph 63% 0 in 622.00 W/m2 unknown
10:19 80.6 °F 66.2 °F 30 in East 5 mph 8.1 mph 62% 0 in 633.00 W/m2 unknown
10:24 80.6 °F 66.2 °F 30 in East 5.6 mph 8.1 mph 61% 0 in 643.00 W/m2 unknown
10:29 80.6 °F 66.2 °F 30 in ESE 5 mph 8.7 mph 63% 0 in 652.00 W/m2 unknown
10:34 80.6 °F 66.2 °F 30 in ESE 5.6 mph 9.3 mph 62% 0 in 666.00 W/m2 unknown
10:39 80.6 °F 68 °F 30 in ESE 6.2 mph 9.3 mph 63% 0 in 668.00 W/m2 unknown
10:44 80.6 °F 66.2 °F 30 in ESE 6.8 mph 10.6 mph 61% 0 in 687.00 W/m2 unknown
10:49 82.4 °F 66.2 °F 30 in East 8.1 mph 10.6 mph 58% 0 in 693.00 W/m2 unknown
10:54 82.4 °F 66.2 °F 30 in ENE 7.5 mph 9.9 mph 58% 0 in 703.00 W/m2 unknown
10:59 82.4 °F 66.2 °F 30 in ESE 6.8 mph 9.3 mph 57% 0 in 710.00 W/m2 unknown
11:04 82.4 °F 66.2 °F 30 in ESE 5 mph 8.7 mph 57% 0 in 721.00 W/m2 unknown
11:09 82.4 °F 66.2 °F 30 in ESE 5 mph 9.3 mph 57% 0 in 733.00 W/m2 unknown
11:14 82.4 °F 64.4 °F 30 in ESE 6.2 mph 8.7 mph 56% 0 in 738.00 W/m2 unknown
11:19 82.4 °F 66.2 °F 30 in ESE 6.2 mph 8.1 mph 56% 0 in 747.00 W/m2 unknown
11:24 82.4 °F 64.4 °F 30 in ESE 6.2 mph 10.6 mph 54% 0 in 758.00 W/m2 unknown
11:29 82.4 °F 64.4 °F 30 in ESE 6.8 mph 10.6 mph 54% 0 in 768.00 W/m2 unknown
11:34 84.2 °F 64.4 °F 30 in ESE 7.5 mph 10.6 mph 54% 0 in 777.00 W/m2 unknown
11:39 84.2 °F 64.4 °F 30 in ESE 7.5 mph 10.6 mph 53% 0 in 782.00 W/m2 unknown
11:44 84.2 °F 64.4 °F 30 in ESE 6.8 mph 9.3 mph 52% 0 in 791.00 W/m2 unknown
11:49 84.2 °F 66.2 °F 30 in ESE 6.8 mph 9.3 mph 54% 0 in 795.00 W/m2 unknown
11:54 84.2 °F 66.2 °F 30 in East 6.8 mph 10.6 mph 54% 0 in 803.00 W/m2 unknown
11:59 84.2 °F 64.4 °F 30 in ESE 6.8 mph 10.6 mph 53% 0 in 807.00 W/m2 unknown
12:04 84.2 °F 66.2 °F 30 in East 6.2 mph 9.9 mph 54% 0 in 819.00 W/m2 unknown
12:09 84.2 °F 66.2 °F 30 in ESE 6.8 mph 10.6 mph 53% 0 in 823.00 W/m2 unknown
12:14 84.2 °F 66.2 °F 30 in ESE 6.2 mph 10.6 mph 53% 0 in 828.00 W/m2 unknown
12:19 84.2 °F 64.4 °F 30 in ESE 6.2 mph 9.9 mph 52% 0 in 833.00 W/m2 unknown
12:24 84.2 °F 66.2 °F 29.9 in ESE 6.2 mph 9.3 mph 55% 0 in 838.00 W/m2 unknown
12:29 84.2 °F 66.2 °F 29.9 in ESE 6.2 mph 9.3 mph 55% 0 in 842.00 W/m2 unknown
12:34 86 °F 66.2 °F 29.9 in ESE 6.2 mph 8.7 mph 53% 0 in 844.00 W/m2 unknown
12:38 86 °F 66.2 °F 29.9 in East 5.6 mph 9.9 mph 53% 0 in 849.00 W/m2 unknown
12:44 86 °F 66.2 °F 29.9 in ENE 6.8 mph 10.6 mph 52% 0 in 858.00 W/m2 unknown
12:49 86 °F 66.2 °F 29.9 in East 7.5 mph 10.6 mph 51% 0 in 858.00 W/m2 unknown
12:54 86 °F 66.2 °F 29.9 in SE 6.8 mph 9.3 mph 51% 0 in 863.00 W/m2 unknown
12:59 86 °F 64.4 °F 29.9 in ESE 5.6 mph 8.7 mph 50% 0 in 868.00 W/m2 unknown
13:04 86 °F 64.4 °F 29.9 in SE 5 mph 8.1 mph 50% 0 in 868.00 W/m2 unknown
13:09 86 °F 66.2 °F 29.9 in ESE 3.7 mph 8.1 mph 50% 0 in 865.00 W/m2 unknown
13:13 86 °F 66.2 °F 29.9 in ESE 3.7 mph 6.8 mph 50% 0 in 867.00 W/m2 unknown
13:19 87.8 °F 66.2 °F 29.9 in East 4.3 mph 6.2 mph 51% 0 in 872.00 W/m2 unknown
13:24 87.8 °F 66.2 °F 29.9 in East 6.8 mph 10.6 mph 51% 0 in 870.00 W/m2 unknown
13:29 87.8 °F 68 °F 29.9 in East 8.1 mph 10.6 mph 52% 0 in 870.00 W/m2 unknown
13:34 87.8 °F 66.2 °F 29.9 in ENE 8.1 mph 10.6 mph 49% 0 in 870.00 W/m2 unknown
13:39 87.8 °F 66.2 °F 29.9 in ENE 8.1 mph 10.6 mph 49% 0 in 872.00 W/m2 unknown
13:44 87.8 °F 66.2 °F 29.9 in ENE 6.8 mph 9.9 mph 49% 0 in 872.00 W/m2 unknown
13:49 87.8 °F 66.2 °F 29.9 in ENE 6.2 mph 9.3 mph 49% 0 in 870.00 W/m2 unknown
13:54 87.8 °F 66.2 °F 29.9 in ENE 5.6 mph 9.3 mph 48% 0 in 867.00 W/m2 unknown
13:59 87.8 °F 66.2 °F 29.9 in ENE 6.2 mph 9.3 mph 48% 0 in 867.00 W/m2 unknown
14:04 87.8 °F 66.2 °F 29.9 in ESE 6.2 mph 14.3 mph 49% 0 in 863.00 W/m2 unknown
14:09 87.8 °F 66.2 °F 29.9 in East 8.1 mph 14.3 mph 49% 0 in 861.00 W/m2 unknown
14:14 87.8 °F 64.4 °F 29.9 in ESE 8.1 mph 14.3 mph 47% 0 in 860.00 W/m2 unknown
14:19 87.8 °F 66.2 °F 29.9 in SE 6.8 mph 14.3 mph 48% 0 in 858.00 W/m2 unknown
14:24 87.8 °F 66.2 °F 29.9 in SE 6.2 mph 8.1 mph 48% 0 in 853.00 W/m2 unknown
14:29 87.8 °F 66.2 °F 29.9 in ESE 5 mph 6.8 mph 48% 0 in 851.00 W/m2 unknown
14:34 87.8 °F 64.4 °F 29.9 in SE 5 mph 6.8 mph 47% 0 in 849.00 W/m2 unknown
14:39 89.6 °F 64.4 °F 29.9 in ESE 4.3 mph 6.8 mph 46% 0 in 849.00 W/m2 unknown
14:44 89.6 °F 66.2 °F 29.9 in East 3.1 mph 8.1 mph 47% 0 in 844.00 W/m2 unknown
14:49 89.6 °F 66.2 °F 29.9 in ESE 3.7 mph 8.1 mph 47% 0 in 837.00 W/m2 unknown
14:54 89.6 °F 66.2 °F 29.9 in East 5 mph 8.1 mph 47% 0 in 833.00 W/m2 unknown
14:59 89.6 °F 66.2 °F 29.9 in NE 5 mph 6.8 mph 46% 0 in 828.00 W/m2 unknown
15:04 89.6 °F 66.2 °F 29.9 in ENE 3.1 mph 6.8 mph 47% 0 in 814.00 W/m2 unknown
15:09 89.6 °F 66.2 °F 29.9 in ESE 3.7 mph 6.8 mph 48% 0 in 810.00 W/m2 unknown
15:14 89.6 °F 66.2 °F 29.9 in East 3.1 mph 6.2 mph 48% 0 in 805.00 W/m2 unknown
15:19 89.6 °F 66.2 °F 29.9 in ESE 4.3 mph 6.8 mph 46% 0 in 798.00 W/m2 unknown
15:23 89.6 °F 68 °F 29.9 in ESE 4.3 mph 6.8 mph 51% 0 in 795.00 W/m2 unknown
15:29 89.6 °F 66.2 °F 29.9 in SSE 3.7 mph 6.8 mph 47% 0 in 795.00 W/m2 unknown
15:34 89.6 °F 66.2 °F 29.9 in ESE 3.1 mph 5 mph 46% 0 in 770.00 W/m2 unknown
15:39 89.6 °F 66.2 °F 29.9 in ESE 4.3 mph 8.1 mph 47% 0 in 763.00 W/m2 unknown
15:44 89.6 °F 66.2 °F 29.9 in SE 5 mph 8.1 mph 45% 0 in 759.00 W/m2 unknown
15:49 89.6 °F 66.2 °F 29.9 in NNE 5 mph 8.1 mph 45% 0 in 745.00 W/m2 unknown
15:54 89.6 °F 68 °F 29.9 in NNE 3.1 mph 6.8 mph 47% 0 in 738.00 W/m2 unknown
15:59 91.4 °F 69.8 °F 29.9 in NE 3.1 mph 6.8 mph 49% 0 in 731.00 W/m2 unknown
16:04 91.4 °F 68 °F 29.9 in NE 5 mph 6.8 mph 48% 0 in 717.00 W/m2 unknown
16:09 91.4 °F 68 °F 29.9 in NE 5 mph 6.8 mph 47% 0 in 707.00 W/m2 unknown
16:14 91.4 °F 68 °F 29.9 in NE 5.6 mph 8.1 mph 47% 0 in 693.00 W/m2 unknown
16:19 91.4 °F 68 °F 29.9 in ENE 6.2 mph 8.1 mph 47% 0 in 682.00 W/m2 unknown
16:24 89.6 °F 66.2 °F 29.9 in ENE 6.2 mph 8.1 mph 45% 0 in 675.00 W/m2 unknown
16:29 89.6 °F 66.2 °F 29.9 in East 6.2 mph 8.1 mph 46% 0 in 666.00 W/m2 unknown
16:34 89.6 °F 66.2 °F 29.9 in ESE 6.2 mph 8.1 mph 46% 0 in 654.00 W/m2 unknown
16:39 89.6 °F 66.2 °F 29.9 in East 6.2 mph 8.1 mph 45% 0 in 642.00 W/m2 unknown
16:44 89.6 °F 66.2 °F 29.9 in ESE 5 mph 8.7 mph 45% 0 in 631.00 W/m2 unknown
16:49 89.6 °F 66.2 °F 29.9 in East 5 mph 6.8 mph 45% 0 in 617.00 W/m2 unknown
16:54 91.4 °F 66.2 °F 29.9 in NE 5.6 mph 8.1 mph 44% 0 in 605.00 W/m2 unknown
16:59 91.4 °F 66.2 °F 29.9 in NNE 6.2 mph 9.3 mph 45% 0 in 592.00 W/m2 unknown
17:04 91.4 °F 64.4 °F 29.9 in NNE 5.6 mph 9.3 mph 43% 0 in 582.00 W/m2 unknown
17:09 91.4 °F 64.4 °F 29.9 in NNE 5 mph 6.8 mph 43% 0 in 575.00 W/m2 unknown
17:14 89.6 °F 64.4 °F 29.9 in NE 3.7 mph 8.7 mph 43% 0 in 564.00 W/m2 unknown
17:19 91.4 °F 66.2 °F 29.9 in NE 5.6 mph 9.3 mph 44% 0 in 580.00 W/m2 unknown
17:24 91.4 °F 64.4 °F 29.9 in NE 5 mph 9.3 mph 43% 0 in 599.00 W/m2 unknown
17:29 91.4 °F 64.4 °F 29.9 in NE 6.2 mph 9.3 mph 42% 0 in 603.00 W/m2 unknown
17:34 91.4 °F 64.4 °F 29.9 in North 6.2 mph 9.3 mph 42% 0 in 603.00 W/m2 unknown
17:39 91.4 °F 64.4 °F 29.9 in North 4.3 mph 8.1 mph 42% 0 in 501.00 W/m2 unknown
17:44 91.4 °F 64.4 °F 29.9 in NNE 4.3 mph 8.1 mph 42% 0 in 443.00 W/m2 unknown
17:49 89.6 °F 64.4 °F 29.9 in NNE 4.3 mph 6.2 mph 42% 0 in 301.00 W/m2 unknown
17:54 89.6 °F 64.4 °F 29.9 in NNE 3.7 mph 6.2 mph 42% 0 in 176.00 W/m2 unknown
17:59 89.6 °F 64.4 °F 29.9 in NNE 4.3 mph 6.2 mph 44% 0 in 146.00 W/m2 unknown
18:04 89.6 °F 64.4 °F 29.9 in NNE 4.3 mph 6.8 mph 43% 0 in 127.00 W/m2 unknown
18:09 87.8 °F 64.4 °F 29.9 in North 8.7 mph 11.8 mph 48% 0 in 107.00 W/m2 unknown
18:14 87.8 °F 64.4 °F 29.9 in North 9.3 mph 14.3 mph 50% 0 in 100.00 W/m2 unknown
18:19 86 °F 64.4 °F 29.9 in NNE 8.1 mph 14.3 mph 50% 0 in 97.00 W/m2 unknown
18:24 86 °F 64.4 °F 29.9 in NNE 7.5 mph 10.6 mph 51% 0 in 88.00 W/m2 unknown
18:29 84.2 °F 64.4 °F 29.9 in North 6.8 mph 10.6 mph 52% 0 in 83.00 W/m2 unknown
18:34 84.2 °F 64.4 °F 29.9 in NNE 5 mph 9.9 mph 53% 0 in 79.00 W/m2 unknown
18:39 84.2 °F 64.4 °F 29.9 in NNE 5 mph 8.1 mph 53% 0 in 76.00 W/m2 unknown
18:44 84.2 °F 66.2 °F 29.9 in NNE 5 mph 8.1 mph 54% 0 in 72.00 W/m2 unknown
18:49 84.2 °F 64.4 °F 29.9 in NE 5 mph 6.8 mph 54% 0 in 65.00 W/m2 unknown
18:54 84.2 °F 66.2 °F 29.9 in NE 5 mph 6.8 mph 55% 0 in 60.00 W/m2 unknown
18:59 82.4 °F 66.2 °F 29.9 in North 5 mph 6.8 mph 56% 0 in 56.00 W/m2 unknown
19:04 82.4 °F 66.2 °F 29.9 in NNE 5.6 mph 8.1 mph 56% 0 in 58.00 W/m2 unknown
19:09 82.4 °F 66.2 °F 29.9 in NNE 5.6 mph 8.1 mph 55% 0 in 62.00 W/m2 unknown
19:14 82.4 °F 64.4 °F 29.9 in NNE 6.2 mph 8.1 mph 55% 0 in 63.00 W/m2 unknown
19:19 82.4 °F 66.2 °F 29.9 in NNE 6.2 mph 6.8 mph 56% 0 in 67.00 W/m2 unknown
19:24 82.4 °F 66.2 °F 29.9 in NNE 5 mph 6.2 mph 57% 0 in 70.00 W/m2 unknown
19:28 82.4 °F 66.2 °F 29.9 in NE 5 mph 6.8 mph 57% 0 in 74.00 W/m2 unknown
19:34 82.4 °F 66.2 °F 29.9 in NE 5 mph 6.8 mph 58% 0 in 76.00 W/m2 unknown
19:39 82.4 °F 66.2 °F 29.9 in NE 5 mph 6.8 mph 59% 0 in 144.00 W/m2 unknown
19:44 82.4 °F 66.2 °F 29.9 in NE 5 mph 6.8 mph 59% 0 in 178.00 W/m2 unknown
19:49 82.4 °F 68 °F 29.9 in NNE 5 mph 6.8 mph 60% 0 in 176.00 W/m2 unknown
19:54 82.4 °F 68 °F 29.9 in NNE 5 mph 6.8 mph 61% 0 in 163.00 W/m2 unknown
19:59 82.4 °F 68 °F 29.9 in NE 5 mph 6.8 mph 61% 0 in 148.00 W/m2 unknown
20:04 82.4 °F 68 °F 29.9 in NE 5 mph 8.1 mph 62% 0 in 130.00 W/m2 unknown
20:09 82.4 °F 68 °F 29.9 in NNE 5 mph 8.1 mph 62% 0 in 114.00 W/m2 unknown
20:14 82.4 °F 68 °F 29.9 in NNE 5 mph 8.1 mph 62% 0 in 81.00 W/m2 unknown
20:19 82.4 °F 68 °F 29.9 in NNE 3.7 mph 6.2 mph 62% 0 in 69.00 W/m2 unknown
20:24 82.4 °F 68 °F 29.9 in NE 3.7 mph 6.2 mph 63% 0 in 58.00 W/m2 unknown
20:29 82.4 °F 68 °F 29.9 in NNE 3.7 mph 6.2 mph 63% 0 in 49.00 W/m2 unknown
20:34 82.4 °F 68 °F 29.9 in NNE 3.7 mph 6.2 mph 63% 0 in 42.00 W/m2 unknown
20:39 82.4 °F 68 °F 29.9 in NE 3.7 mph 6.2 mph 63% 0 in 37.00 W/m2 unknown
20:44 82.4 °F 68 °F 29.9 in NE 3.7 mph 6.2 mph 64% 0 in 32.00 W/m2 unknown
20:49 82.4 °F 68 °F 29.9 in NE 5 mph 6.8 mph 64% 0 in 26.00 W/m2 unknown
20:54 80.6 °F 68 °F 29.9 in NE 5 mph 6.8 mph 63% 0 in 21.00 W/m2 unknown
20:59 80.6 °F 68 °F 29.9 in NE 5 mph 6.2 mph 63% 0 in 16.00 W/m2 unknown
21:04 80.6 °F 68 °F 29.9 in NE 5 mph 6.2 mph 63% 0 in 12.00 W/m2 unknown
21:09 80.6 °F 68 °F 29.9 in NE 3.1 mph 3.7 mph 63% 0 in 9.00 W/m2 unknown
21:14 80.6 °F 68 °F 29.9 in NE 3.7 mph 5 mph 64% 0 in 0.00 W/m2 unknown
21:19 80.6 °F 68 °F 29.9 in NE 3.7 mph 5 mph 64% 0 in 0.00 W/m2 unknown
21:24 80.6 °F 68 °F 29.9 in NE 4.3 mph 5 mph 64% 0 in 0.00 W/m2 unknown
21:29 80.6 °F 68 °F 29.9 in NE 3.7 mph 5 mph 65% 0 in 0.00 W/m2 unknown
21:33 80.6 °F 68 °F 29.9 in ENE 3.7 mph 5 mph 65% 0 in 0.00 W/m2 unknown
21:39 80.6 °F 68 °F 29.9 in ENE 4.3 mph 6.8 mph 66% 0 in 0.00 W/m2 unknown
21:44 78.8 °F 68 °F 29.9 in ENE 5 mph 6.8 mph 66% 0 in 0.00 W/m2 unknown
21:49 78.8 °F 66.2 °F 29.9 in ENE 5 mph 6.8 mph 67% 0 in 0.00 W/m2 unknown
21:54 78.8 °F 66.2 °F 29.9 in East 5 mph 6.8 mph 67% 0 in 0.00 W/m2 unknown
21:59 78.8 °F 66.2 °F 29.9 in East 5 mph 6.8 mph 68% 0 in 0.00 W/m2 unknown
22:04 78.8 °F 66.2 °F 29.9 in East 3.1 mph 6.8 mph 69% 0 in 0.00 W/m2 unknown
22:09 78.8 °F 66.2 °F 29.9 in ENE 3.7 mph 6.8 mph 69% 0 in 0.00 W/m2 unknown
22:14 78.8 °F 66.2 °F 29.9 in ENE 3.7 mph 6.8 mph 69% 0 in 0.00 W/m2 unknown
22:19 77 °F 66.2 °F 29.9 in ENE 4.3 mph 6.8 mph 69% 0 in 0.00 W/m2 unknown
22:24 77 °F 66.2 °F 29.9 in ENE 3.7 mph 6.2 mph 70% 0 in 0.00 W/m2 unknown
22:29 77 °F 66.2 °F 29.9 in East 4.3 mph 6.2 mph 70% 0 in 0.00 W/m2 unknown
22:34 77 °F 66.2 °F 29.9 in East 4.3 mph 6.2 mph 70% 0 in 0.00 W/m2 unknown
22:39 77 °F 66.2 °F 29.9 in ENE 3.1 mph 6.2 mph 70% 0 in 0.00 W/m2 unknown
22:44 77 °F 66.2 °F 29.9 in ENE 4.3 mph 8.1 mph 70% 0 in 0.00 W/m2 unknown
22:49 77 °F 66.2 °F 29.9 in ENE 4.3 mph 8.1 mph 70% 0 in 0.00 W/m2 unknown
22:54 77 °F 66.2 °F 29.9 in ENE 5 mph 8.1 mph 70% 0 in 0.00 W/m2 unknown
22:59 77 °F 66.2 °F 29.9 in ENE 4.3 mph 6.8 mph 70% 0 in 0.00 W/m2 unknown
23:04 77 °F 66.2 °F 29.9 in ENE 5 mph 6.8 mph 70% 0 in 0.00 W/m2 unknown
23:09 77 °F 66.2 °F 29.9 in ENE 3.1 mph 5 mph 71% 0 in 0.00 W/m2 unknown
23:14 77 °F 66.2 °F 29.9 in ENE 3.7 mph 5 mph 72% 0 in 0.00 W/m2 unknown
23:19 75.2 °F 66.2 °F 29.9 in ENE 3.7 mph 5 mph 73% 0 in 0.00 W/m2 unknown
23:24 75.2 °F 66.2 °F 29.9 in ENE 4.3 mph 6.8 mph 73% 0 in 0.00 W/m2 unknown
23:29 75.2 °F 66.2 °F 29.9 in ENE 5 mph 6.8 mph 74% 0 in 0.00 W/m2 unknown
23:34 75.2 °F 66.2 °F 29.9 in ENE 5 mph 6.8 mph 74% 0 in 0.00 W/m2 unknown
23:39 75.2 °F 66.2 °F 29.9 in ENE 5 mph 6.8 mph 75% 0 in 0.00 W/m2 unknown
23:44 75.2 °F 66.2 °F 29.9 in ENE 3.7 mph 5 mph 75% 0 in 0.00 W/m2 unknown
23:49 75.2 °F 66.2 °F 29.9 in ENE 3.7 mph 5 mph 75% 0 in 0.00 W/m2 unknown
23:54 75.2 °F 66.2 °F 29.9 in ENE 4.3 mph 5 mph 75% 0 in 0.00 W/m2 unknown
23:59 73.4 °F 66.2 °F 29.9 in ENE 5.6 mph 8.1 mph 75% 0 in 0.00 W/m2 unknown
Stazione Meteorologica MeteoMincio Rivalta s/M (MN)
Con i complimenti di Weather Underground - 4 mb



METEO PILLOLE
Il ghiacciaio più meridionale d'Europa
Ghiacciaio del Calderone, Teramo, Abruzzo, Italia:
Definito "fossile" perchè la parte di ghiaccio vivo è quasi totalmente ricoperta di ghiaia, comunque ospita nevai perenni. Si estende tra circa 2650 m e circa 2850 m di quota sotto la vetta del Corno Grande, cima più alta dell'Appennino (2912 m), gruppo montuoso del Gran Sasso d'Italia.
Share

Non seguire questo link o sarai bannato dal sito!